createdAt,value
2023-04-22T00:00:17.182Z,4.93
2023-04-22T00:03:05.288Z,5.20
2023-04-22T00:05:53.639Z,5.23
2023-04-22T00:08:40.196Z,5.07
2023-04-22T00:11:27.286Z,5.17
2023-04-22T00:14:13.840Z,5.27
2023-04-22T00:17:00.505Z,5.43
2023-04-22T00:19:47.729Z,4.93
2023-04-22T00:22:35.752Z,5.10
2023-04-22T00:25:22.492Z,4.80
2023-04-22T00:28:09.390Z,4.90
2023-04-22T00:30:56.065Z,5.13
2023-04-22T00:33:43.141Z,5.53
2023-04-22T00:36:29.799Z,5.53
2023-04-22T00:39:18.046Z,6.13
2023-04-22T00:42:04.904Z,5.90
2023-04-22T00:44:52.583Z,5.57
2023-04-22T00:47:39.278Z,5.93
2023-04-22T00:50:26.090Z,5.70
2023-04-22T00:53:12.890Z,5.90
2023-04-22T00:56:01.254Z,5.20
2023-04-22T00:58:48.134Z,5.77
2023-04-22T01:01:35.243Z,5.60
2023-04-22T01:04:23.220Z,5.60
2023-04-22T01:07:09.926Z,5.47
2023-04-22T01:09:56.729Z,6.00
2023-04-22T01:12:44.834Z,5.83
2023-04-22T01:15:31.734Z,5.43
2023-04-22T01:18:19.871Z,5.67
2023-04-22T01:21:07.278Z,5.60
2023-04-22T01:23:55.761Z,5.50
2023-04-22T01:26:42.284Z,5.50
2023-04-22T01:29:29.223Z,5.93
2023-04-22T01:32:15.878Z,6.17
2023-04-22T01:35:02.884Z,5.90
2023-04-22T01:37:49.403Z,5.90
2023-04-22T01:40:39.165Z,5.20
2023-04-22T01:43:26.474Z,5.50
2023-04-22T01:46:13.353Z,5.70
2023-04-22T01:49:00.025Z,4.80
2023-04-22T01:51:46.657Z,5.40
2023-04-22T01:54:33.996Z,5.33
2023-04-22T01:57:22.098Z,5.43
2023-04-22T02:00:10.335Z,5.43
2023-04-22T02:03:00.009Z,5.63
2023-04-22T02:05:46.836Z,5.53
2023-04-22T02:08:33.588Z,6.30
2023-04-22T02:11:21.418Z,6.40
2023-04-22T02:14:09.643Z,6.27
2023-04-22T02:16:56.491Z,5.83
2023-04-22T02:19:43.444Z,6.20
2023-04-22T02:22:30.696Z,6.60
2023-04-22T02:25:17.811Z,6.10
2023-04-22T02:28:04.336Z,6.10
2023-04-22T02:30:52.745Z,6.60
2023-04-22T02:33:42.461Z,5.73
2023-04-22T02:36:29.304Z,6.27
2023-04-22T02:39:16.046Z,6.27
2023-04-22T02:42:03.010Z,5.27
2023-04-22T02:44:49.715Z,6.80
2023-04-22T02:47:38.011Z,7.33
2023-04-22T02:50:24.697Z,5.90
2023-04-22T02:53:11.614Z,6.97
2023-04-22T02:55:58.525Z,6.17
2023-04-22T02:58:45.263Z,6.50
2023-04-22T03:01:32.355Z,6.57
2023-04-22T03:04:23.413Z,6.73
2023-04-22T03:07:10.403Z,6.23
2023-04-22T03:09:57.017Z,7.03
2023-04-22T03:12:44.312Z,7.13
2023-04-22T03:15:31.734Z,7.03
2023-04-22T03:18:18.208Z,7.00
2023-04-22T03:21:07.438Z,6.97
2023-04-22T03:23:54.006Z,6.40
2023-04-22T03:26:41.236Z,6.77
2023-04-22T03:29:28.424Z,7.20
2023-04-22T03:32:15.264Z,7.50
2023-04-22T03:35:01.879Z,7.03
2023-04-22T03:37:50.442Z,7.60
2023-04-22T03:40:42.286Z,6.60
2023-04-22T03:43:51.702Z,6.80
2023-04-22T03:46:38.545Z,7.40
2023-04-22T03:49:34.433Z,6.70
2023-04-22T03:52:21.188Z,7.37
2023-04-22T03:55:17.288Z,6.80
2023-04-22T03:58:04.495Z,6.67
2023-04-22T04:00:51.217Z,6.90
2023-04-22T04:03:39.250Z,7.47
2023-04-22T04:06:28.194Z,7.07
2023-04-22T04:09:14.769Z,7.33
2023-04-22T04:12:03.072Z,7.73
2023-04-22T04:14:55.100Z,6.43
2023-04-22T04:17:42.953Z,7.53
2023-04-22T04:20:29.734Z,7.50
2023-04-22T04:23:16.150Z,8.23
2023-04-22T04:26:05.835Z,7.30
2023-04-22T04:29:01.903Z,8.27
2023-04-22T04:31:48.987Z,7.70
2023-04-22T04:34:38.314Z,7.87
2023-04-22T04:37:27.554Z,7.37
2023-04-22T04:40:19.247Z,8.20
2023-04-22T04:43:13.082Z,7.50
2023-04-22T04:46:10.506Z,6.57
2023-04-22T04:49:02.917Z,7.80
2023-04-22T04:52:03.522Z,7.07
2023-04-22T04:54:50.044Z,7.40
2023-04-22T04:57:38.384Z,6.57
2023-04-22T05:00:29.314Z,7.40
2023-04-22T05:03:21.943Z,7.30
2023-04-22T05:06:10.864Z,7.83
2023-04-22T05:09:00.534Z,7.20
2023-04-22T05:11:46.948Z,7.60
2023-04-22T05:14:38.719Z,6.43
2023-04-22T05:17:25.646Z,6.23
2023-04-22T05:20:14.340Z,7.13
2023-04-22T05:23:01.462Z,7.10
2023-04-22T05:25:48.466Z,8.67
2023-04-22T05:28:36.250Z,6.70
2023-04-22T05:31:23.856Z,6.50
2023-04-22T05:34:12.068Z,6.57
2023-04-22T05:37:01.386Z,8.00
2023-04-22T05:39:48.247Z,6.97
2023-04-22T05:42:35.993Z,6.60
2023-04-22T05:45:22.653Z,7.40
2023-04-22T05:48:10.068Z,7.40
2023-04-22T05:51:02.692Z,7.63
2023-04-22T05:53:51.776Z,9.20
2023-04-22T05:56:38.581Z,7.67
2023-04-22T05:59:25.232Z,7.87
2023-04-22T06:02:12.015Z,7.50
2023-04-22T06:05:01.130Z,8.87
2023-04-22T06:07:47.903Z,8.37
2023-04-22T06:10:36.178Z,8.30
2023-04-22T06:13:23.052Z,7.90
2023-04-22T06:16:10.255Z,7.83
2023-04-22T06:18:57.070Z,7.50
2023-04-22T06:21:43.896Z,7.37
2023-04-22T06:24:30.523Z,7.20
2023-04-22T06:27:18.656Z,7.50
2023-04-22T06:30:06.187Z,8.20
2023-04-22T06:32:53.456Z,8.40
2023-04-22T06:35:39.993Z,8.47
2023-04-22T06:38:26.884Z,8.73
2023-04-22T06:41:46.149Z,8.87
2023-04-22T06:45:04.344Z,11.57
2023-04-22T06:48:01.964Z,8.00
2023-04-22T06:51:03.820Z,8.00
2023-04-22T06:53:51.221Z,8.07
2023-04-22T06:56:38.466Z,8.13
2023-04-22T06:59:24.921Z,7.60
2023-04-22T07:02:13.369Z,8.07
2023-04-22T07:05:00.634Z,7.27
2023-04-22T07:07:48.022Z,7.00
2023-04-22T07:10:39.275Z,7.67
2023-04-22T07:13:48.238Z,6.90
2023-04-22T07:16:34.759Z,6.87
2023-04-22T07:19:22.833Z,6.63
2023-04-22T07:22:09.648Z,6.60
2023-04-22T07:24:56.370Z,6.67
2023-04-22T07:27:43.111Z,6.13
2023-04-22T07:30:29.989Z,6.53
2023-04-22T07:33:16.800Z,6.57
2023-04-22T07:36:05.343Z,6.30
2023-04-22T07:38:52.232Z,6.77
2023-04-22T07:41:39.192Z,6.60
2023-04-22T07:44:25.846Z,6.23
2023-04-22T07:47:12.922Z,6.20
2023-04-22T07:49:59.839Z,6.30
2023-04-22T07:52:47.712Z,6.20
2023-04-22T07:55:35.209Z,6.43
2023-04-22T07:58:21.773Z,6.43
2023-04-22T08:01:08.585Z,6.60
2023-04-22T08:03:55.662Z,6.03
2023-04-22T08:06:42.859Z,6.30
2023-04-22T08:09:30.782Z,6.27
2023-04-22T08:12:17.571Z,6.43
2023-04-22T08:15:04.836Z,6.30
2023-04-22T08:17:51.689Z,6.90
2023-04-22T08:20:38.445Z,6.20
2023-04-22T08:23:25.540Z,6.87
2023-04-22T08:26:15.281Z,6.33
2023-04-22T08:29:02.478Z,6.07
2023-04-22T08:31:49.288Z,6.63
2023-04-22T08:34:37.178Z,6.07
2023-04-22T08:37:24.092Z,7.07
2023-04-22T08:40:11.261Z,6.67
2023-04-22T08:42:59.635Z,6.60
2023-04-22T08:45:46.493Z,7.17
2023-04-22T08:48:33.799Z,6.63
2023-04-22T08:51:20.270Z,6.57
2023-04-22T08:54:07.429Z,6.33
2023-04-22T08:56:55.133Z,7.10
2023-04-22T08:59:43.502Z,6.60
2023-04-22T09:02:33.171Z,6.93
2023-04-22T09:05:21.535Z,6.67
2023-04-22T09:08:09.037Z,6.97
2023-04-22T09:10:55.767Z,6.23
2023-04-22T09:13:43.531Z,6.20
2023-04-22T09:16:32.900Z,6.70
2023-04-22T09:19:19.669Z,5.97
2023-04-22T09:22:07.194Z,6.93
2023-04-22T09:24:57.775Z,6.83
2023-04-22T09:27:44.543Z,6.80
2023-04-22T09:30:47.445Z,6.97
2023-04-22T09:33:40.209Z,7.17
2023-04-22T09:36:28.345Z,7.10
2023-04-22T09:39:15.031Z,6.90
2023-04-22T09:42:02.073Z,7.20
2023-04-22T09:44:49.761Z,7.07
2023-04-22T09:47:37.617Z,7.40
2023-04-22T09:50:27.985Z,6.90
2023-04-22T09:53:17.667Z,6.87
2023-04-22T09:56:05.970Z,7.23
2023-04-22T09:58:53.725Z,6.57
2023-04-22T10:01:41.528Z,6.97
2023-04-22T10:04:28.868Z,6.87
2023-04-22T10:07:17.687Z,7.07
2023-04-22T10:10:04.638Z,7.30
2023-04-22T10:12:53.039Z,6.70
2023-04-22T10:15:42.507Z,6.77
2023-04-22T10:18:30.893Z,7.17
2023-04-22T10:21:19.782Z,7.73
2023-04-22T10:24:08.218Z,6.90
2023-04-22T10:26:57.910Z,6.90
2023-04-22T10:29:44.711Z,6.00
2023-04-22T10:32:32.061Z,6.43
2023-04-22T10:35:29.104Z,7.47
2023-04-22T10:38:15.446Z,5.90
2023-04-22T10:41:04.450Z,6.10
2023-04-22T10:43:58.709Z,6.07
2023-04-22T10:47:02.051Z,6.10
2023-04-22T10:49:51.668Z,6.57
2023-04-22T10:52:38.302Z,5.67
2023-04-22T10:55:26.193Z,5.90
2023-04-22T10:58:22.554Z,6.33
2023-04-22T11:01:16.803Z,5.70
2023-04-22T11:04:23.082Z,5.47
2023-04-22T11:07:17.122Z,5.43
2023-04-22T11:10:15.891Z,6.20
2023-04-22T11:13:03.508Z,6.40
2023-04-22T11:15:56.035Z,6.23
2023-04-22T11:18:42.732Z,6.20
2023-04-22T11:21:29.382Z,6.27
2023-04-22T11:24:20.703Z,5.87
2023-04-22T11:27:07.428Z,6.30
2023-04-22T11:30:03.422Z,5.73
2023-04-22T11:32:53.036Z,5.80
2023-04-22T11:35:39.750Z,5.80
2023-04-22T11:38:26.587Z,7.27
2023-04-22T11:41:13.382Z,6.60
2023-04-22T11:44:01.526Z,6.13
2023-04-22T11:46:48.271Z,5.77
2023-04-22T11:49:36.786Z,6.57
2023-04-22T11:52:23.700Z,5.93
2023-04-22T11:55:12.006Z,5.67
2023-04-22T11:58:00.498Z,5.43
2023-04-22T12:00:48.504Z,5.40
2023-04-22T12:03:35.947Z,5.47
2023-04-22T12:06:24.410Z,4.83
2023-04-22T12:09:13.928Z,5.80
2023-04-22T12:12:01.709Z,5.27
2023-04-22T12:14:49.418Z,4.77
2023-04-22T12:17:36.151Z,5.00
2023-04-22T12:20:24.594Z,5.10
2023-04-22T12:23:16.787Z,4.80
2023-04-22T12:26:03.356Z,5.10
2023-04-22T12:28:50.993Z,4.80
2023-04-22T12:31:38.736Z,4.40
2023-04-22T12:34:25.537Z,5.17
2023-04-22T12:37:12.701Z,4.80
2023-04-22T12:40:01.014Z,4.73
2023-04-22T12:42:47.773Z,4.97
2023-04-22T12:45:34.748Z,4.80
2023-04-22T12:48:21.564Z,4.83
2023-04-22T12:51:08.306Z,4.97
2023-04-22T12:53:54.988Z,4.97
2023-04-22T12:56:43.190Z,5.03
2023-04-22T12:59:29.783Z,5.10
2023-04-22T13:02:16.768Z,5.30
2023-04-22T13:05:03.383Z,5.10
2023-04-22T13:07:59.684Z,4.70
2023-04-22T13:10:53.106Z,4.77
2023-04-22T13:13:41.191Z,4.70
2023-04-22T13:16:28.054Z,4.87
2023-04-22T13:19:14.968Z,4.80
2023-04-22T13:22:01.847Z,4.93
2023-04-22T13:24:48.224Z,5.37
2023-04-22T13:27:35.136Z,5.47
2023-04-22T13:30:23.387Z,5.83
2023-04-22T13:33:10.309Z,5.30
2023-04-22T13:35:57.084Z,4.97
2023-04-22T13:38:44.005Z,5.33
2023-04-22T13:41:30.785Z,4.97
2023-04-22T13:44:17.588Z,5.10
2023-04-22T13:47:05.877Z,5.97
2023-04-22T13:49:52.709Z,5.50
2023-04-22T13:52:39.383Z,5.47
2023-04-22T13:55:26.786Z,5.23
2023-04-22T13:58:13.738Z,5.30
2023-04-22T14:01:05.877Z,5.03
2023-04-22T14:03:55.587Z,4.87
2023-04-22T14:06:42.265Z,4.97
2023-04-22T14:09:29.196Z,4.93
2023-04-22T14:12:16.110Z,5.07
2023-04-22T14:15:02.803Z,5.07
2023-04-22T14:17:49.842Z,4.60
2023-04-22T14:20:38.337Z,5.00
2023-04-22T14:23:24.802Z,4.90
2023-04-22T14:26:12.876Z,4.93
2023-04-22T14:28:59.914Z,5.40
2023-04-22T14:31:46.929Z,4.97
2023-04-22T14:34:33.847Z,5.43
2023-04-22T14:37:23.444Z,5.67
2023-04-22T14:40:12.407Z,4.70
2023-04-22T14:43:00.659Z,5.23
2023-04-22T14:45:47.877Z,4.93
2023-04-22T14:48:35.640Z,4.77
2023-04-22T14:51:22.068Z,4.57
2023-04-22T14:54:10.177Z,4.93
2023-04-22T14:56:56.949Z,4.50
2023-04-22T14:59:43.771Z,5.27
2023-04-22T15:02:32.624Z,5.60
2023-04-22T15:05:19.345Z,5.03
2023-04-22T15:08:06.561Z,4.97
2023-04-22T15:10:54.452Z,4.93
2023-04-22T15:13:41.267Z,4.80
2023-04-22T15:16:28.039Z,4.53
2023-04-22T15:19:15.088Z,5.13
2023-04-22T15:22:01.841Z,4.90
2023-04-22T15:24:48.542Z,4.87
2023-04-22T15:27:36.806Z,5.03
2023-04-22T15:30:24.064Z,4.53
2023-04-22T15:33:10.571Z,4.83
2023-04-22T15:35:57.446Z,5.47
2023-04-22T15:38:44.320Z,4.60
2023-04-22T15:41:31.173Z,5.10
2023-04-22T15:44:19.518Z,5.47
2023-04-22T15:47:07.286Z,5.83
2023-04-22T15:49:54.438Z,4.87
2023-04-22T15:52:41.051Z,4.97
2023-04-22T15:55:28.075Z,4.90
2023-04-22T15:58:14.734Z,5.23
2023-04-22T16:01:17.458Z,4.80
2023-04-22T16:04:06.150Z,4.67
2023-04-22T16:06:53.498Z,4.93
2023-04-22T16:09:40.269Z,5.30
2023-04-22T16:12:27.226Z,4.80
2023-04-22T16:15:14.189Z,5.10
2023-04-22T16:18:03.125Z,5.00
2023-04-22T16:20:50.217Z,5.03
2023-04-22T16:23:37.485Z,4.80
2023-04-22T16:26:24.050Z,4.93
2023-04-22T16:29:10.694Z,5.10
2023-04-22T16:31:57.715Z,5.43
2023-04-22T16:34:45.956Z,5.27
2023-04-22T16:37:32.504Z,5.80
2023-04-22T16:40:19.396Z,6.00
2023-04-22T16:43:06.428Z,5.67
2023-04-22T16:45:53.096Z,5.73
2023-04-22T16:48:39.820Z,5.43
2023-04-22T16:51:28.244Z,5.60
2023-04-22T16:54:15.007Z,5.87
2023-04-22T16:57:02.067Z,5.70
2023-04-22T16:59:48.793Z,5.97
2023-04-22T17:02:36.290Z,6.00
2023-04-22T17:05:23.201Z,6.60
2023-04-22T17:08:11.478Z,6.37
2023-04-22T17:10:58.200Z,5.93
2023-04-22T17:13:45.039Z,5.90
2023-04-22T17:16:32.424Z,5.97
2023-04-22T17:19:18.990Z,5.90
2023-04-22T17:22:05.937Z,6.00
2023-04-22T17:24:54.072Z,5.90
2023-04-22T17:27:40.552Z,6.77
2023-04-22T17:30:27.393Z,6.90
2023-04-22T17:33:14.196Z,7.53
2023-04-22T17:36:00.969Z,7.87
2023-04-22T17:38:47.909Z,7.93
2023-04-22T17:41:36.172Z,7.30
2023-04-22T17:44:25.836Z,7.90
2023-04-22T17:47:13.857Z,7.97
2023-04-22T17:50:01.297Z,8.47
2023-04-22T17:52:48.029Z,7.97
2023-04-22T17:55:35.354Z,7.30
2023-04-22T17:58:23.157Z,9.27
2023-04-22T18:01:10.246Z,13.97
2023-04-22T18:03:57.056Z,11.60
2023-04-22T18:06:43.680Z,11.67
2023-04-22T18:09:30.566Z,13.10
2023-04-22T18:12:17.414Z,11.73
2023-04-22T18:15:06.804Z,12.90
2023-04-22T18:17:53.363Z,13.73
2023-04-22T18:20:40.319Z,14.43
2023-04-22T18:23:26.954Z,14.07
2023-04-22T18:26:13.760Z,12.57
2023-04-22T18:29:00.822Z,12.13
2023-04-22T18:31:48.688Z,11.70
2023-04-22T18:34:35.570Z,10.43
2023-04-22T18:37:22.358Z,7.67
2023-04-22T18:40:10.279Z,8.97
2023-04-22T18:42:57.000Z,9.20
2023-04-22T18:45:43.673Z,7.53
2023-04-22T18:48:32.057Z,8.07
2023-04-22T18:51:18.662Z,8.53
2023-04-22T18:54:05.826Z,7.93
2023-04-22T18:56:52.722Z,7.70
2023-04-22T18:59:39.817Z,7.43
2023-04-22T19:02:26.827Z,7.73
2023-04-22T19:05:15.303Z,7.10
2023-04-22T19:08:01.780Z,7.17
2023-04-22T19:10:48.560Z,7.27
2023-04-22T19:13:35.400Z,6.87
2023-04-22T19:16:24.275Z,7.27
2023-04-22T19:19:12.722Z,7.20
2023-04-22T19:22:00.910Z,6.70
2023-04-22T19:24:48.310Z,7.27
2023-04-22T19:27:35.361Z,7.23
2023-04-22T19:30:23.100Z,8.27
2023-04-22T19:33:09.946Z,7.57
2023-04-22T19:35:56.766Z,7.27
2023-04-22T19:38:44.924Z,8.10
2023-04-22T19:41:33.560Z,7.63
2023-04-22T19:44:20.484Z,8.80
2023-04-22T19:47:08.474Z,8.03
2023-04-22T19:49:58.121Z,7.10
2023-04-22T19:52:48.681Z,7.63
2023-04-22T19:55:39.363Z,7.70
2023-04-22T19:58:28.714Z,7.70
2023-04-22T20:01:15.873Z,7.10
2023-04-22T20:04:15.661Z,7.43
2023-04-22T20:07:04.216Z,7.33
2023-04-22T20:09:53.116Z,7.30
2023-04-22T20:12:41.499Z,7.73
2023-04-22T20:15:28.661Z,7.73
2023-04-22T20:18:15.429Z,7.13
2023-04-22T20:21:02.153Z,7.53
2023-04-22T20:23:51.404Z,7.47
2023-04-22T20:26:38.666Z,7.17
2023-04-22T20:29:27.328Z,8.40
2023-04-22T20:32:14.101Z,7.37
2023-04-22T20:35:01.535Z,7.50
2023-04-22T20:37:50.928Z,7.93
2023-04-22T20:40:38.699Z,7.70
2023-04-22T20:43:25.529Z,7.20
2023-04-22T20:46:13.734Z,7.73
2023-04-22T20:49:00.538Z,8.13
2023-04-22T20:51:47.474Z,8.27
2023-04-22T20:54:34.342Z,8.20
2023-04-22T20:57:22.735Z,8.07
2023-04-22T21:00:11.658Z,8.10
2023-04-22T21:03:00.826Z,7.83
2023-04-22T21:05:47.648Z,9.33
2023-04-22T21:08:36.894Z,8.70
2023-04-22T21:11:24.150Z,8.87
2023-04-22T21:14:11.950Z,8.20
2023-04-22T21:17:02.489Z,8.00
2023-04-22T21:19:51.668Z,7.70
2023-04-22T21:22:39.245Z,7.30
2023-04-22T21:25:26.878Z,7.83
2023-04-22T21:28:14.186Z,7.80
2023-04-22T21:31:01.828Z,7.40
2023-04-22T21:33:48.268Z,7.40
2023-04-22T21:36:36.490Z,7.23
2023-04-22T21:39:23.418Z,7.90
2023-04-22T21:42:10.585Z,6.93
2023-04-22T21:44:57.366Z,7.83
2023-04-22T21:47:44.290Z,6.97
2023-04-22T21:50:31.556Z,7.00
2023-04-22T21:53:20.789Z,6.63
2023-04-22T21:56:07.832Z,7.97
2023-04-22T21:58:55.708Z,7.27
2023-04-22T22:01:42.369Z,7.40
2023-04-22T22:04:29.249Z,6.43
2023-04-22T22:07:17.591Z,7.30
2023-04-22T22:10:06.594Z,7.20
2023-04-22T22:12:53.263Z,7.00
2023-04-22T22:15:40.121Z,7.10
2023-04-22T22:18:27.134Z,6.67
2023-04-22T22:21:14.029Z,6.47
2023-04-22T22:24:00.800Z,7.10
2023-04-22T22:26:49.188Z,6.83
2023-04-22T22:29:35.902Z,7.50
2023-04-22T22:32:22.624Z,6.27
2023-04-22T22:35:10.205Z,6.67
2023-04-22T22:37:56.779Z,6.90
2023-04-22T22:40:43.549Z,6.97
2023-04-22T22:43:31.820Z,7.30
2023-04-22T22:46:18.864Z,7.00
2023-04-22T22:49:05.619Z,6.93
2023-04-22T22:51:52.425Z,6.93
2023-04-22T22:54:40.429Z,6.63
2023-04-22T22:57:27.479Z,7.50
2023-04-22T23:00:16.303Z,7.63
2023-04-22T23:03:03.041Z,7.23
2023-04-22T23:05:49.678Z,6.60
2023-04-22T23:08:36.464Z,7.63
2023-04-22T23:11:23.238Z,6.80
2023-04-22T23:14:10.731Z,7.17
2023-04-22T23:16:58.873Z,7.17
2023-04-22T23:19:46.459Z,6.90
2023-04-22T23:22:34.864Z,6.80
2023-04-22T23:25:21.753Z,7.30
2023-04-22T23:28:08.762Z,7.23
2023-04-22T23:30:56.915Z,7.10
2023-04-22T23:33:46.378Z,6.80
2023-04-22T23:36:36.719Z,7.17
2023-04-22T23:39:23.411Z,6.90
2023-04-22T23:42:10.035Z,7.37
2023-04-22T23:44:56.803Z,7.50
2023-04-22T23:47:43.589Z,7.17
2023-04-22T23:50:31.694Z,7.47
2023-04-22T23:53:18.662Z,7.37
2023-04-22T23:56:05.995Z,7.70
2023-04-22T23:58:54.314Z,7.73
